sensor_id;sensor_type;location;lat;lon;timestamp;pressure;altitude;pressure_sealevel;temperature;humidity
28701;BME280;15877;52.344;16.790;2023-04-29T00:02:28;100225.33;;;14.06;55.95
28701;BME280;15877;52.344;16.790;2023-04-29T00:05:02;100222.20;;;14.04;56.38
28701;BME280;15877;52.344;16.790;2023-04-29T00:07:35;100214.45;;;14.02;56.43
28701;BME280;15877;52.344;16.790;2023-04-29T00:10:09;100216.36;;;14.02;56.61
28701;BME280;15877;52.344;16.790;2023-04-29T00:12:44;100210.30;;;14.01;57.06
28701;BME280;15877;52.344;16.790;2023-04-29T00:15:17;100209.96;;;13.99;57.87
28701;BME280;15877;52.344;16.790;2023-04-29T00:17:50;100206.44;;;13.97;57.45
28701;BME280;15877;52.344;16.790;2023-04-29T00:20:23;100206.98;;;13.96;57.57
28701;BME280;15877;52.344;16.790;2023-04-29T00:22:55;100209.06;;;13.95;57.22
28701;BME280;15877;52.344;16.790;2023-04-29T00:25:28;100199.69;;;13.85;57.76
28701;BME280;15877;52.344;16.790;2023-04-29T00:28:01;100207.39;;;13.91;57.47
28701;BME280;15877;52.344;16.790;2023-04-29T00:30:34;100207.69;;;13.90;57.41
28701;BME280;15877;52.344;16.790;2023-04-29T00:33:07;100203.78;;;13.89;57.56
28701;BME280;15877;52.344;16.790;2023-04-29T00:35:39;100208.16;;;13.88;57.47
28701;BME280;15877;52.344;16.790;2023-04-29T00:38:12;100212.05;;;13.86;57.27
28701;BME280;15877;52.344;16.790;2023-04-29T00:40:44;100207.20;;;13.86;57.65
28701;BME280;15877;52.344;16.790;2023-04-29T00:43:17;100210.53;;;13.84;57.06
28701;BME280;15877;52.344;16.790;2023-04-29T00:45:49;100206.63;;;13.83;57.80
28701;BME280;15877;52.344;16.790;2023-04-29T00:48:22;100204.63;;;13.85;57.81
28701;BME280;15877;52.344;16.790;2023-04-29T00:50:54;100205.83;;;13.84;57.74
28701;BME280;15877;52.344;16.790;2023-04-29T00:53:26;100204.15;;;13.85;57.67
28701;BME280;15877;52.344;16.790;2023-04-29T00:55:59;100199.60;;;13.85;58.02
28701;BME280;15877;52.344;16.790;2023-04-29T00:58:33;100200.88;;;13.85;58.36
28701;BME280;15877;52.344;16.790;2023-04-29T01:01:07;100199.61;;;13.86;58.51
28701;BME280;15877;52.344;16.790;2023-04-29T01:03:40;100198.43;;;13.86;57.74
28701;BME280;15877;52.344;16.790;2023-04-29T01:06:19;100198.58;;;13.87;57.87
28701;BME280;15877;52.344;16.790;2023-04-29T01:09:05;100204.48;;;13.87;58.55
28701;BME280;15877;52.344;16.790;2023-04-29T01:11:48;100206.48;;;13.88;59.92
28701;BME280;15877;52.344;16.790;2023-04-29T01:14:25;100209.12;;;13.88;59.91
28701;BME280;15877;52.344;16.790;2023-04-29T01:17:02;100210.01;;;13.89;60.34
28701;BME280;15877;52.344;16.790;2023-04-29T01:19:45;100210.25;;;13.89;60.71
28701;BME280;15877;52.344;16.790;2023-04-29T01:22:18;100205.92;;;13.88;60.70
28701;BME280;15877;52.344;16.790;2023-04-29T01:24:52;100206.46;;;13.85;60.70
28701;BME280;15877;52.344;16.790;2023-04-29T01:27:30;100205.02;;;13.84;60.13
28701;BME280;15877;52.344;16.790;2023-04-29T01:30:20;100207.50;;;13.84;59.74
28701;BME280;15877;52.344;16.790;2023-04-29T01:33:05;100204.00;;;13.86;59.76
28701;BME280;15877;52.344;16.790;2023-04-29T01:35:49;100207.11;;;13.84;60.06
28701;BME280;15877;52.344;16.790;2023-04-29T01:38:32;100209.66;;;13.84;60.13
28701;BME280;15877;52.344;16.790;2023-04-29T01:41:12;100207.18;;;13.83;60.10
28701;BME280;15877;52.344;16.790;2023-04-29T01:43:50;100209.81;;;13.83;59.69
28701;BME280;15877;52.344;16.790;2023-04-29T01:46:26;100212.44;;;13.82;59.58
28701;BME280;15877;52.344;16.790;2023-04-29T01:49:01;100206.46;;;13.84;59.24
28701;BME280;15877;52.344;16.790;2023-04-29T01:51:33;100209.73;;;13.85;59.42
28701;BME280;15877;52.344;16.790;2023-04-29T01:54:06;100208.61;;;13.83;59.41
28701;BME280;15877;52.344;16.790;2023-04-29T01:56:38;100208.14;;;13.84;59.02
28701;BME280;15877;52.344;16.790;2023-04-29T01:59:23;100203.53;;;13.85;59.22
28701;BME280;15877;52.344;16.790;2023-04-29T02:02:14;100207.45;;;13.89;59.17
28701;BME280;15877;52.344;16.790;2023-04-29T02:04:58;100206.24;;;13.90;60.10
28701;BME280;15877;52.344;16.790;2023-04-29T02:07:30;100205.77;;;13.90;60.59
28701;BME280;15877;52.344;16.790;2023-04-29T02:10:03;100205.53;;;13.91;60.70
28701;BME280;15877;52.344;16.790;2023-04-29T02:12:36;100204.02;;;13.90;60.94
28701;BME280;15877;52.344;16.790;2023-04-29T02:15:10;100203.53;;;13.88;61.16
28701;BME280;15877;52.344;16.790;2023-04-29T02:17:43;100206.73;;;13.87;61.19
28701;BME280;15877;52.344;16.790;2023-04-29T02:20:17;100201.05;;;13.84;61.36
28701;BME280;15877;52.344;16.790;2023-04-29T02:22:49;100200.33;;;13.84;61.44
28701;BME280;15877;52.344;16.790;2023-04-29T02:25:23;100200.88;;;13.83;61.58
28701;BME280;15877;52.344;16.790;2023-04-29T02:27:56;100198.95;;;13.82;61.35
28701;BME280;15877;52.344;16.790;2023-04-29T02:30:29;100197.35;;;13.81;62.15
28701;BME280;15877;52.344;16.790;2023-04-29T02:33:02;100196.15;;;13.79;63.00
28701;BME280;15877;52.344;16.790;2023-04-29T02:35:38;100199.66;;;13.78;63.70
28701;BME280;15877;52.344;16.790;2023-04-29T02:38:10;100203.55;;;13.76;64.50
28701;BME280;15877;52.344;16.790;2023-04-29T02:40:43;100203.30;;;13.75;64.60
28701;BME280;15877;52.344;16.790;2023-04-29T02:43:17;100198.75;;;13.73;65.06
28701;BME280;15877;52.344;16.790;2023-04-29T02:45:49;100198.57;;;13.69;65.90
28701;BME280;15877;52.344;16.790;2023-04-29T02:48:22;100193.38;;;13.69;65.57
28701;BME280;15877;52.344;16.790;2023-04-29T02:50:54;100189.54;;;13.68;65.95
28701;BME280;15877;52.344;16.790;2023-04-29T02:53:27;100190.90;;;13.65;65.76
28701;BME280;15877;52.344;16.790;2023-04-29T02:55:59;100191.42;;;13.63;65.88
28701;BME280;15877;52.344;16.790;2023-04-29T02:58:32;100190.21;;;13.61;66.15
28701;BME280;15877;52.344;16.790;2023-04-29T03:01:04;100188.60;;;13.58;66.65
28701;BME280;15877;52.344;16.790;2023-04-29T03:03:37;100186.20;;;13.56;66.84
28701;BME280;15877;52.344;16.790;2023-04-29T03:06:10;100185.48;;;13.54;66.36
28701;BME280;15877;52.344;16.790;2023-04-29T03:08:42;100185.63;;;13.51;66.80
28701;BME280;15877;52.344;16.790;2023-04-29T03:11:15;100182.17;;;13.47;66.52
28701;BME280;15877;52.344;16.790;2023-04-29T03:13:47;100188.06;;;13.48;67.11
28701;BME280;15877;52.344;16.790;2023-04-29T03:16:20;100189.19;;;13.48;67.08
28701;BME280;15877;52.344;16.790;2023-04-29T03:18:53;100189.01;;;13.44;66.85
28701;BME280;15877;52.344;16.790;2023-04-29T03:21:26;100188.44;;;13.41;66.39
28701;BME280;15877;52.344;16.790;2023-04-29T03:23:59;100185.55;;;13.40;66.20
28701;BME280;15877;52.344;16.790;2023-04-29T03:26:36;100181.90;;;13.42;66.56
28701;BME280;15877;52.344;16.790;2023-04-29T03:29:09;100176.61;;;13.39;66.16
28701;BME280;15877;52.344;16.790;2023-04-29T03:31:41;100182.18;;;13.36;65.56
28701;BME280;15877;52.344;16.790;2023-04-29T03:34:15;100177.48;;;13.37;65.35
28701;BME280;15877;52.344;16.790;2023-04-29T03:36:52;100181.55;;;13.38;65.22
28701;BME280;15877;52.344;16.790;2023-04-29T03:39:25;100178.60;;;13.39;65.84
28701;BME280;15877;52.344;16.790;2023-04-29T03:42:02;100178.14;;;13.40;66.02
28701;BME280;15877;52.344;16.790;2023-04-29T03:44:34;100181.31;;;13.38;65.95
28701;BME280;15877;52.344;16.790;2023-04-29T03:47:06;100180.52;;;13.40;66.48
28701;BME280;15877;52.344;16.790;2023-04-29T03:49:39;100175.35;;;13.41;66.09
28701;BME280;15877;52.344;16.790;2023-04-29T03:52:12;100179.90;;;13.43;66.31
28701;BME280;15877;52.344;16.790;2023-04-29T03:54:46;100178.41;;;13.44;66.62
28701;BME280;15877;52.344;16.790;2023-04-29T03:57:18;100180.08;;;13.44;67.17
28701;BME280;15877;52.344;16.790;2023-04-29T03:59:51;100183.11;;;13.45;67.05
28701;BME280;15877;52.344;16.790;2023-04-29T04:02:26;100182.25;;;13.46;67.10
28701;BME280;15877;52.344;16.790;2023-04-29T04:04:59;100179.05;;;13.45;67.24
28701;BME280;15877;52.344;16.790;2023-04-29T04:07:32;100182.80;;;13.45;66.91
28701;BME280;15877;52.344;16.790;2023-04-29T04:10:23;100182.17;;;13.46;67.04
28701;BME280;15877;52.344;16.790;2023-04-29T04:12:55;100164.31;;;13.36;67.42
28701;BME280;15877;52.344;16.790;2023-04-29T04:15:28;100164.73;;;13.38;67.37
28701;BME280;15877;52.344;16.790;2023-04-29T04:18:01;100179.94;;;13.47;67.22
28701;BME280;15877;52.344;16.790;2023-04-29T04:20:35;100177.77;;;13.47;67.39
28701;BME280;15877;52.344;16.790;2023-04-29T04:23:07;100178.12;;;13.48;67.82
28701;BME280;15877;52.344;16.790;2023-04-29T04:25:45;100174.38;;;13.38;67.07
28701;BME280;15877;52.344;16.790;2023-04-29T04:28:50;100180.81;;;13.47;66.63
28701;BME280;15877;52.344;16.790;2023-04-29T04:31:35;100185.54;;;13.49;66.98
28701;BME280;15877;52.344;16.790;2023-04-29T04:34:07;100181.93;;;13.48;66.34
28701;BME280;15877;52.344;16.790;2023-04-29T04:36:40;100180.27;;;13.49;66.82
28701;BME280;15877;52.344;16.790;2023-04-29T04:39:13;100179.33;;;13.50;66.31
28701;BME280;15877;52.344;16.790;2023-04-29T04:41:45;100176.36;;;13.50;65.79
28701;BME280;15877;52.344;16.790;2023-04-29T04:44:18;100168.63;;;13.53;64.58
28701;BME280;15877;52.344;16.790;2023-04-29T04:46:58;100171.04;;;13.54;64.97
28701;BME280;15877;52.344;16.790;2023-04-29T04:49:50;100166.66;;;13.53;65.34
28701;BME280;15877;52.344;16.790;2023-04-29T04:52:24;100169.14;;;13.56;65.23
28701;BME280;15877;52.344;16.790;2023-04-29T04:55:05;100168.92;;;13.59;66.13
28701;BME280;15877;52.344;16.790;2023-04-29T04:57:38;100165.83;;;13.61;66.50
28701;BME280;15877;52.344;16.790;2023-04-29T05:00:13;100163.77;;;13.64;66.27
28701;BME280;15877;52.344;16.790;2023-04-29T05:02:46;100163.06;;;13.67;66.98
28701;BME280;15877;52.344;16.790;2023-04-29T05:05:19;100161.48;;;13.69;66.99
28701;BME280;15877;52.344;16.790;2023-04-29T05:07:52;100158.30;;;13.72;66.72
28701;BME280;15877;52.344;16.790;2023-04-29T05:10:30;100156.17;;;13.76;67.59
28701;BME280;15877;52.344;16.790;2023-04-29T05:13:03;100154.84;;;13.81;67.91
28701;BME280;15877;52.344;16.790;2023-04-29T05:15:36;100155.96;;;13.84;67.84
28701;BME280;15877;52.344;16.790;2023-04-29T05:18:09;100154.30;;;13.88;68.04
28701;BME280;15877;52.344;16.790;2023-04-29T05:20:43;100155.45;;;13.94;68.09
28701;BME280;15877;52.344;16.790;2023-04-29T05:23:15;100152.17;;;13.97;67.98
28701;BME280;15877;52.344;16.790;2023-04-29T05:25:49;100153.42;;;14.04;66.79
28701;BME280;15877;52.344;16.790;2023-04-29T05:28:21;100153.66;;;14.08;65.91
28701;BME280;15877;52.344;16.790;2023-04-29T05:30:55;100153.52;;;14.08;64.85
28701;BME280;15877;52.344;16.790;2023-04-29T05:33:27;100150.40;;;14.10;64.65
28701;BME280;15877;52.344;16.790;2023-04-29T05:36:00;100154.64;;;14.14;64.28
28701;BME280;15877;52.344;16.790;2023-04-29T05:38:32;100145.20;;;14.07;64.71
28701;BME280;15877;52.344;16.790;2023-04-29T05:41:07;100156.14;;;14.08;64.71
28701;BME280;15877;52.344;16.790;2023-04-29T05:43:51;100163.73;;;14.09;64.55
28701;BME280;15877;52.344;16.790;2023-04-29T05:46:23;100166.54;;;14.17;64.21
28701;BME280;15877;52.344;16.790;2023-04-29T05:48:56;100165.20;;;14.22;64.10
28701;BME280;15877;52.344;16.790;2023-04-29T05:51:29;100165.62;;;14.25;64.23
28701;BME280;15877;52.344;16.790;2023-04-29T05:54:02;100164.84;;;14.27;65.14
28701;BME280;15877;52.344;16.790;2023-04-29T05:56:35;100171.22;;;14.28;65.57
28701;BME280;15877;52.344;16.790;2023-04-29T05:59:07;100169.96;;;14.31;64.92
28701;BME280;15877;52.344;16.790;2023-04-29T06:01:40;100161.67;;;14.39;65.14
28701;BME280;15877;52.344;16.790;2023-04-29T06:04:13;100169.05;;;14.45;64.64
28701;BME280;15877;52.344;16.790;2023-04-29T06:07:11;100172.48;;;14.52;64.49
28701;BME280;15877;52.344;16.790;2023-04-29T06:10:05;100177.77;;;14.61;64.04
28701;BME280;15877;52.344;16.790;2023-04-29T06:12:38;100178.17;;;14.65;63.88
28701;BME280;15877;52.344;16.790;2023-04-29T06:15:11;100165.64;;;14.61;63.68
28701;BME280;15877;52.344;16.790;2023-04-29T06:17:43;100181.23;;;14.65;63.70
28701;BME280;15877;52.344;16.790;2023-04-29T06:20:15;100180.35;;;14.71;63.54
28701;BME280;15877;52.344;16.790;2023-04-29T06:22:48;100181.63;;;14.69;63.33
28701;BME280;15877;52.344;16.790;2023-04-29T06:25:21;100165.39;;;14.61;62.84
28701;BME280;15877;52.344;16.790;2023-04-29T06:27:54;100178.90;;;14.70;62.80
28701;BME280;15877;52.344;16.790;2023-04-29T06:30:30;100181.77;;;14.72;63.13
28701;BME280;15877;52.344;16.790;2023-04-29T06:33:02;100180.66;;;14.70;63.25
28701;BME280;15877;52.344;16.790;2023-04-29T06:35:39;100182.26;;;14.71;63.34
28701;BME280;15877;52.344;16.790;2023-04-29T06:38:30;100186.91;;;14.77;63.33
28701;BME280;15877;52.344;16.790;2023-04-29T06:41:24;100187.00;;;14.80;63.29
28701;BME280;15877;52.344;16.790;2023-04-29T06:44:10;100191.61;;;14.82;63.23
28701;BME280;15877;52.344;16.790;2023-04-29T06:47:01;100196.11;;;14.82;63.07
28701;BME280;15877;52.344;16.790;2023-04-29T06:49:56;100192.82;;;14.81;63.04
28701;BME280;15877;52.344;16.790;2023-04-29T06:52:29;100194.42;;;14.83;62.92
28701;BME280;15877;52.344;16.790;2023-04-29T06:55:02;100186.99;;;14.83;62.93
28701;BME280;15877;52.344;16.790;2023-04-29T06:57:34;100183.63;;;14.84;62.94
28701;BME280;15877;52.344;16.790;2023-04-29T07:00:09;100179.23;;;14.83;63.33
28701;BME280;15877;52.344;16.790;2023-04-29T07:02:41;100176.52;;;14.84;63.60
28701;BME280;15877;52.344;16.790;2023-04-29T07:05:14;100177.88;;;14.88;63.13
28701;BME280;15877;52.344;16.790;2023-04-29T07:07:46;100177.80;;;14.89;63.46
28701;BME280;15877;52.344;16.790;2023-04-29T07:10:19;100177.08;;;14.91;63.32
28701;BME280;15877;52.344;16.790;2023-04-29T07:12:51;100177.09;;;14.95;63.54
28701;BME280;15877;52.344;16.790;2023-04-29T07:15:24;100176.92;;;14.91;63.64
28701;BME280;15877;52.344;16.790;2023-04-29T07:17:57;100175.16;;;14.89;63.13
28701;BME280;15877;52.344;16.790;2023-04-29T07:20:30;100174.45;;;14.98;62.84
28701;BME280;15877;52.344;16.790;2023-04-29T07:23:03;100169.65;;;15.05;63.19
28701;BME280;15877;52.344;16.790;2023-04-29T07:25:35;100168.94;;;15.11;62.67
28701;BME280;15877;52.344;16.790;2023-04-29T07:28:08;100167.23;;;15.18;62.20
28701;BME280;15877;52.344;16.790;2023-04-29T07:30:41;100164.21;;;15.19;62.31
28701;BME280;15877;52.344;16.790;2023-04-29T07:33:13;100163.88;;;15.26;62.50
28701;BME280;15877;52.344;16.790;2023-04-29T07:35:46;100160.03;;;15.39;62.25
28701;BME280;15877;52.344;16.790;2023-04-29T07:38:19;100159.70;;;15.52;62.62
28701;BME280;15877;52.344;16.790;2023-04-29T07:40:51;100159.42;;;15.64;61.33
28701;BME280;15877;52.344;16.790;2023-04-29T07:43:24;100154.70;;;15.67;61.47
28701;BME280;15877;52.344;16.790;2023-04-29T07:45:57;100151.95;;;15.74;61.59
28701;BME280;15877;52.344;16.790;2023-04-29T07:48:29;100154.59;;;15.78;61.61
28701;BME280;15877;52.344;16.790;2023-04-29T07:51:02;100157.95;;;15.77;61.42
28701;BME280;15877;52.344;16.790;2023-04-29T07:53:35;100160.24;;;15.84;61.60
28701;BME280;15877;52.344;16.790;2023-04-29T07:56:08;100157.02;;;15.88;61.96
28701;BME280;15877;52.344;16.790;2023-04-29T07:58:43;100155.80;;;15.95;62.13
28701;BME280;15877;52.344;16.790;2023-04-29T08:01:16;100161.15;;;15.98;62.43
28701;BME280;15877;52.344;16.790;2023-04-29T08:03:48;100168.09;;;16.05;62.97
28701;BME280;15877;52.344;16.790;2023-04-29T08:06:22;100170.93;;;16.12;63.58
28701;BME280;15877;52.344;16.790;2023-04-29T08:08:54;100171.55;;;16.15;64.29
28701;BME280;15877;52.344;16.790;2023-04-29T08:11:27;100174.15;;;16.08;63.64
28701;BME280;15877;52.344;16.790;2023-04-29T08:14:00;100153.70;;;15.98;62.75
28701;BME280;15877;52.344;16.790;2023-04-29T08:16:32;100175.70;;;16.21;62.78
28701;BME280;15877;52.344;16.790;2023-04-29T08:19:05;100177.66;;;16.27;62.47
28701;BME280;15877;52.344;16.790;2023-04-29T08:21:38;100182.33;;;16.25;62.25
28701;BME280;15877;52.344;16.790;2023-04-29T08:24:11;100186.24;;;16.26;63.10
28701;BME280;15877;52.344;16.790;2023-04-29T08:26:44;100184.56;;;16.26;62.60
28701;BME280;15877;52.344;16.790;2023-04-29T08:29:17;100189.77;;;16.26;63.41
28701;BME280;15877;52.344;16.790;2023-04-29T08:31:50;100193.55;;;16.21;63.42
28701;BME280;15877;52.344;16.790;2023-04-29T08:34:23;100191.14;;;16.23;64.63
28701;BME280;15877;52.344;16.790;2023-04-29T08:36:55;100189.00;;;16.19;65.33
28701;BME280;15877;52.344;16.790;2023-04-29T08:39:28;100192.13;;;16.19;66.31
28701;BME280;15877;52.344;16.790;2023-04-29T08:42:08;100188.19;;;16.20;65.94
28701;BME280;15877;52.344;16.790;2023-04-29T08:44:41;100186.34;;;16.21;66.90
28701;BME280;15877;52.344;16.790;2023-04-29T08:47:15;100192.17;;;16.26;66.87
28701;BME280;15877;52.344;16.790;2023-04-29T08:49:48;100188.86;;;16.32;66.44
28701;BME280;15877;52.344;16.790;2023-04-29T08:52:21;100192.40;;;16.29;66.38
28701;BME280;15877;52.344;16.790;2023-04-29T08:54:53;100192.04;;;16.35;66.09
28701;BME280;15877;52.344;16.790;2023-04-29T08:57:27;100190.58;;;16.39;65.90
28701;BME280;15877;52.344;16.790;2023-04-29T09:00:01;100191.08;;;16.37;65.53
28701;BME280;15877;52.344;16.790;2023-04-29T09:02:40;100189.31;;;16.54;65.12
28701;BME280;15877;52.344;16.790;2023-04-29T09:05:14;100188.64;;;16.60;65.25
28701;BME280;15877;52.344;16.790;2023-04-29T09:07:47;100187.84;;;16.71;64.30
28701;BME280;15877;52.344;16.790;2023-04-29T09:10:21;100187.98;;;16.84;64.23
28701;BME280;15877;52.344;16.790;2023-04-29T09:12:56;100186.81;;;17.03;64.18
28701;BME280;15877;52.344;16.790;2023-04-29T09:15:29;100189.35;;;17.16;62.97
28701;BME280;15877;52.344;16.790;2023-04-29T09:18:06;100186.13;;;17.26;63.38
28701;BME280;15877;52.344;16.790;2023-04-29T09:20:39;100187.27;;;17.33;62.58
28701;BME280;15877;52.344;16.790;2023-04-29T09:23:12;100191.30;;;17.29;60.81
28701;BME280;15877;52.344;16.790;2023-04-29T09:25:56;100190.77;;;17.19;59.83
28701;BME280;15877;52.344;16.790;2023-04-29T09:28:28;100192.46;;;17.26;60.97
28701;BME280;15877;52.344;16.790;2023-04-29T09:31:02;100192.71;;;17.15;60.65
28701;BME280;15877;52.344;16.790;2023-04-29T09:36:39;100196.38;;;17.00;61.21
28701;BME280;15877;52.344;16.790;2023-04-29T09:39:12;100199.10;;;17.00;61.54
28701;BME280;15877;52.344;16.790;2023-04-29T09:42:01;100204.89;;;17.07;61.05
28701;BME280;15877;52.344;16.790;2023-04-29T09:44:34;100202.56;;;17.27;61.76
28701;BME280;15877;52.344;16.790;2023-04-29T09:47:08;100204.90;;;17.45;61.78
28701;BME280;15877;52.344;16.790;2023-04-29T09:49:42;100204.83;;;17.44;61.29
28701;BME280;15877;52.344;16.790;2023-04-29T09:52:16;100203.39;;;17.43;60.65
28701;BME280;15877;52.344;16.790;2023-04-29T09:54:49;100200.20;;;17.52;61.14
28701;BME280;15877;52.344;16.790;2023-04-29T09:57:21;100202.36;;;17.68;61.85
28701;BME280;15877;52.344;16.790;2023-04-29T10:00:14;100201.09;;;17.81;60.49
28701;BME280;15877;52.344;16.790;2023-04-29T10:02:48;100200.45;;;18.02;61.30
28701;BME280;15877;52.344;16.790;2023-04-29T10:05:21;100195.59;;;18.11;60.60
28701;BME280;15877;52.344;16.790;2023-04-29T10:07:54;100192.42;;;18.21;59.80
28701;BME280;15877;52.344;16.790;2023-04-29T10:10:28;100196.38;;;18.26;59.51
28701;BME280;15877;52.344;16.790;2023-04-29T10:13:01;100195.98;;;18.39;59.01
28701;BME280;15877;52.344;16.790;2023-04-29T10:15:37;100199.95;;;18.28;58.81
28701;BME280;15877;52.344;16.790;2023-04-29T10:18:17;100204.98;;;18.26;58.60
28701;BME280;15877;52.344;16.790;2023-04-29T10:20:51;100211.16;;;18.00;58.73
28701;BME280;15877;52.344;16.790;2023-04-29T10:23:25;100211.66;;;17.84;59.05
28701;BME280;15877;52.344;16.790;2023-04-29T10:25:58;100214.35;;;17.79;59.82
28701;BME280;15877;52.344;16.790;2023-04-29T10:28:33;100213.04;;;17.67;60.89
28701;BME280;15877;52.344;16.790;2023-04-29T10:31:08;100214.87;;;17.69;61.57
28701;BME280;15877;52.344;16.790;2023-04-29T10:33:42;100219.02;;;17.86;61.99
28701;BME280;15877;52.344;16.790;2023-04-29T10:36:15;100217.05;;;17.90;64.41
28701;BME280;15877;52.344;16.790;2023-04-29T10:38:51;100219.42;;;17.85;64.60
28701;BME280;15877;52.344;16.790;2023-04-29T10:41:29;100216.44;;;17.94;64.03
28701;BME280;15877;52.344;16.790;2023-04-29T10:44:02;100214.16;;;17.90;64.03
28701;BME280;15877;52.344;16.790;2023-04-29T10:46:35;100217.13;;;17.91;63.47
28701;BME280;15877;52.344;16.790;2023-04-29T10:49:08;100214.16;;;18.04;63.58
28701;BME280;15877;52.344;16.790;2023-04-29T10:51:42;100214.55;;;18.04;64.05
28701;BME280;15877;52.344;16.790;2023-04-29T10:54:16;100212.77;;;18.05;63.95
28701;BME280;15877;52.344;16.790;2023-04-29T10:56:55;100209.92;;;18.09;63.98
28701;BME280;15877;52.344;16.790;2023-04-29T10:59:46;100204.63;;;18.28;63.62
28701;BME280;15877;52.344;16.790;2023-04-29T11:02:18;100202.16;;;18.46;63.93
28701;BME280;15877;52.344;16.790;2023-04-29T11:05:11;100203.42;;;18.60;63.23
28701;BME280;15877;52.344;16.790;2023-04-29T11:07:45;100200.54;;;18.59;63.02
28701;BME280;15877;52.344;16.790;2023-04-29T11:10:18;100201.52;;;18.57;62.95
28701;BME280;15877;52.344;16.790;2023-04-29T11:13:24;100205.13;;;18.52;63.58
28701;BME280;15877;52.344;16.790;2023-04-29T11:16:04;100205.84;;;18.47;62.84
28701;BME280;15877;52.344;16.790;2023-04-29T11:21:30;100182.32;;;18.06;66.42
28701;BME280;15877;52.344;16.790;2023-04-29T11:24:04;100205.91;;;18.20;66.57
28701;BME280;15877;52.344;16.790;2023-04-29T11:26:37;100203.83;;;18.14;67.67
28701;BME280;15877;52.344;16.790;2023-04-29T11:29:10;100204.80;;;18.14;68.65
28701;BME280;15877;52.344;16.790;2023-04-29T11:31:42;100203.04;;;18.13;68.53
28701;BME280;15877;52.344;16.790;2023-04-29T11:34:15;100199.50;;;18.20;69.64
28701;BME280;15877;52.344;16.790;2023-04-29T11:36:47;100181.65;;;18.21;69.47
28701;BME280;15877;52.344;16.790;2023-04-29T11:39:21;100196.66;;;18.42;68.98
28701;BME280;15877;52.344;16.790;2023-04-29T11:42:03;100203.17;;;18.48;69.10
28701;BME280;15877;52.344;16.790;2023-04-29T11:44:36;100202.82;;;18.56;69.03
28701;BME280;15877;52.344;16.790;2023-04-29T11:47:09;100202.73;;;18.46;69.28
28701;BME280;15877;52.344;16.790;2023-04-29T11:49:42;100202.77;;;18.55;68.97
28701;BME280;15877;52.344;16.790;2023-04-29T11:52:14;100201.95;;;18.55;68.62
28701;BME280;15877;52.344;16.790;2023-04-29T11:54:47;100199.41;;;18.70;67.88
28701;BME280;15877;52.344;16.790;2023-04-29T11:57:20;100195.85;;;18.71;68.04
28701;BME280;15877;52.344;16.790;2023-04-29T11:59:53;100189.36;;;18.80;67.07
28701;BME280;15877;52.344;16.790;2023-04-29T12:02:29;100198.43;;;18.91;66.90
28701;BME280;15877;52.344;16.790;2023-04-29T12:05:06;100193.48;;;18.95;66.86
28701;BME280;15877;52.344;16.790;2023-04-29T12:07:39;100199.55;;;18.97;65.52
28701;BME280;15877;52.344;16.790;2023-04-29T12:10:12;100201.93;;;18.89;65.90
28701;BME280;15877;52.344;16.790;2023-04-29T12:12:44;100205.61;;;18.84;66.26
28701;BME280;15877;52.344;16.790;2023-04-29T12:15:17;100202.15;;;18.79;65.83
28701;BME280;15877;52.344;16.790;2023-04-29T12:17:50;100202.45;;;18.82;65.63
28701;BME280;15877;52.344;16.790;2023-04-29T12:20:23;100201.02;;;18.80;65.37
28701;BME280;15877;52.344;16.790;2023-04-29T12:22:55;100190.19;;;18.73;64.84
28701;BME280;15877;52.344;16.790;2023-04-29T12:25:29;100199.54;;;18.82;65.25
28701;BME280;15877;52.344;16.790;2023-04-29T12:28:03;100196.16;;;18.83;64.75
28701;BME280;15877;52.344;16.790;2023-04-29T12:30:38;100195.55;;;18.85;64.37
28701;BME280;15877;52.344;16.790;2023-04-29T12:33:11;100196.89;;;18.87;65.19
28701;BME280;15877;52.344;16.790;2023-04-29T12:35:46;100197.65;;;18.95;65.10
28701;BME280;15877;52.344;16.790;2023-04-29T12:38:23;100194.48;;;19.03;65.26
28701;BME280;15877;52.344;16.790;2023-04-29T12:41:00;100193.88;;;19.19;64.85
28701;BME280;15877;52.344;16.790;2023-04-29T12:43:34;100192.63;;;19.26;64.79
28701;BME280;15877;52.344;16.790;2023-04-29T12:46:07;100193.23;;;19.24;64.91
28701;BME280;15877;52.344;16.790;2023-04-29T12:48:41;100191.77;;;19.21;64.32
28701;BME280;15877;52.344;16.790;2023-04-29T12:51:15;100191.14;;;19.19;64.85
28701;BME280;15877;52.344;16.790;2023-04-29T12:53:48;100192.09;;;19.15;64.90
28701;BME280;15877;52.344;16.790;2023-04-29T12:56:22;100186.77;;;19.02;65.46
28701;BME280;15877;52.344;16.790;2023-04-29T12:58:55;100189.30;;;18.84;66.12
28701;BME280;15877;52.344;16.790;2023-04-29T13:01:28;100190.95;;;18.76;66.47
28701;BME280;15877;52.344;16.790;2023-04-29T13:04:00;100187.48;;;18.71;65.90
28701;BME280;15877;52.344;16.790;2023-04-29T13:06:36;100187.67;;;18.69;67.33
28701;BME280;15877;52.344;16.790;2023-04-29T13:09:11;100185.55;;;18.71;66.91
28701;BME280;15877;52.344;16.790;2023-04-29T13:11:48;100180.59;;;18.59;67.24
28701;BME280;15877;52.344;16.790;2023-04-29T13:14:21;100181.36;;;18.57;67.55
28701;BME280;15877;52.344;16.790;2023-04-29T13:16:54;100179.19;;;18.57;66.99
28701;BME280;15877;52.344;16.790;2023-04-29T13:19:27;100184.97;;;18.51;66.82
28701;BME280;15877;52.344;16.790;2023-04-29T13:22:19;100183.62;;;18.30;67.85
28701;BME280;15877;52.344;16.790;2023-04-29T13:24:52;100180.66;;;18.29;67.70
28701;BME280;15877;52.344;16.790;2023-04-29T13:27:25;100189.23;;;18.25;67.86